Friday, December 19, 2014
01:30 UTC
  |  Log In   |  Register Free
Airport Search:

Foothills Regional Airport
(KMRN)

Foothills Regional Airport Diagram
No Airport Diagram Available

FAA data valid effective November 13, 2014 - January 08, 2015 (unless otherwise noted).

 
 
 
 
 
 
 
 
 
 
 
 
 
 

Current Aviation Weather for Foothills Regional Airport (KMRN)

The most recent METAR observation for KMRN was updated at: 2117
METAR Summary (Translated METAR)
KMRN
182055Z AUTO 00000KT 10SM OVC060 12/M04 A3009 RMK AO2 T01151039
KHKY
182053Z AUTO VRB04KT 10SM CLR 11/M06 A3005 RMK AO2 SLP168 T01061056 56016
(11.8 nm SE from KMRN)
KFQD
182055Z AUTO 19008KT 10SM BKN070 13/M05 A3006 RMK AO2 T01271046
(28.3 nm SW from KMRN)
TAF Summary (Translated TAF)
KHKY
(11.8 nm SE from KMRN)
181740Z 1818/1918 18003KT P6SM SCT080 FM190200 31003KT P6SM SCT080
  Airport Weather Conditions for KMRN

 Current Weather at MRN
48° F
Overcast
North winds at 0.0 mph
MRN NOAA Radar

Pressure: 30.13 in
Humidity: 45%
Wind: Calm
Dew Point: 27.5°F
Visibility: 10.00 mi


Airport Weather Forecast for KMRN

Translated METAR and TAF for KMRN
Translated METAR for KMRN (0131 UTC 19 December 2014)
found at http://aviationweather.gov/adds/metars/
 
METAR text: KMRN 190115Z AUTO 00000KT 10SM OVC050 08/M02 A3013 RMK AO2 T00841016
Conditions at: KMRN (MORGANTON/LENOIR, NC, US) observed 0115 UTC 19 December 2014
Temperature: 8.4°C (47°F)
Dewpoint: -1.6°C (29°F) [RH = 49%]
Pressure (altimeter): 30.13 inches Hg (1020.4 mb)
Winds: calm
Visibility: 10 or more miles (16+ km)
Ceiling: 5000 feet AGL
Clouds: overcast cloud deck at 5000 feet AGL
Weather: automated observation with no human augmentation;
there may or may not be significant weather present at this time
Translated TAF for KMRN

There is no translated TAF available for this airport

Find All Airport Services Find A Hotel Find A Rental Car Find A Golf Course Find A Restaurant $100 Hamburger



FBO's on the Field
FBO Company Facility Photos Services Transportation Aviation Fuel Prices: Prices include tax
Catering Weather Repair Courtesy Rental Type 100LL JetA JetA+ MOGAS 8087
 
Foothills Aviation

This FBO has not yet been rated
FS:Shell
Last Updated: Dec-18
Login to update fuel prices
SS:
Contact Foothills AviationMore FBO Information
 
Add another FBO Facility Photos Catering Weather Repair Courtesy Rental Type 100LL JetA JetA+ MOGAS 8087
Services Transportation Aviation Fuel Prices: Prices include tax


model-print
model-print
model-print
model-print